createdAt,value
2022-10-20T00:02:19.643Z,23.42
2022-10-20T00:04:54.137Z,26.77
2022-10-20T00:07:22.309Z,28.80
2022-10-20T00:09:49.744Z,31.35
2022-10-20T00:12:23.160Z,34.55
2022-10-20T00:14:50.560Z,33.13
2022-10-20T00:17:17.936Z,31.27
2022-10-20T00:19:55.160Z,31.40
2022-10-20T00:22:22.535Z,36.47
2022-10-20T00:24:51.527Z,27.77
2022-10-20T00:27:25.236Z,38.40
2022-10-20T00:29:52.686Z,37.17
2022-10-20T00:32:20.070Z,34.30
2022-10-20T00:34:54.126Z,33.17
2022-10-20T00:37:23.990Z,32.25
2022-10-20T00:39:53.910Z,32.45
2022-10-20T00:42:27.913Z,32.50
2022-10-20T00:44:58.339Z,30.73
2022-10-20T00:47:50.912Z,35.20
2022-10-20T00:50:31.231Z,34.35
2022-10-20T00:53:07.907Z,28.52
2022-10-20T00:55:40.002Z,28.67
2022-10-20T00:58:07.645Z,32.80
2022-10-20T01:00:43.918Z,33.28
2022-10-20T01:03:18.149Z,36.23
2022-10-20T01:05:51.936Z,32.25
2022-10-20T01:08:19.400Z,34.10
2022-10-20T01:11:21.890Z,34.90
2022-10-20T01:14:19.202Z,34.83
2022-10-20T01:17:30.636Z,30.63
2022-10-20T01:20:23.776Z,40.05
2022-10-20T01:23:18.701Z,36.72
2022-10-20T01:26:10.372Z,38.78
2022-10-20T01:29:00.020Z,33.58
2022-10-20T01:31:48.658Z,37.58
2022-10-20T01:34:29.192Z,33.83
2022-10-20T01:37:28.409Z,40.07
2022-10-20T01:40:22.665Z,36.10
2022-10-20T01:42:52.941Z,35.70
2022-10-20T01:45:32.476Z,40.03
2022-10-20T01:48:12.268Z,37.45
2022-10-20T01:50:53.029Z,33.40
2022-10-20T01:53:20.795Z,39.00
2022-10-20T01:55:52.822Z,47.25
2022-10-20T01:58:50.452Z,38.92
2022-10-20T02:01:45.439Z,38.38
2022-10-20T02:04:22.139Z,37.70
2022-10-20T02:07:04.974Z,45.60
2022-10-20T02:09:56.090Z,42.95
2022-10-20T02:12:31.342Z,47.30
2022-10-20T02:15:07.034Z,47.58
2022-10-20T02:17:37.386Z,42.63
2022-10-20T02:20:14.077Z,43.75
2022-10-20T02:22:41.799Z,48.55
2022-10-20T02:25:14.817Z,41.85
2022-10-20T02:27:54.091Z,44.08
2022-10-20T02:30:22.363Z,45.40
2022-10-20T02:32:52.978Z,44.83
2022-10-20T02:35:33.200Z,48.80
2022-10-20T02:38:01.268Z,40.28
2022-10-20T02:40:31.451Z,46.25
2022-10-20T02:43:05.410Z,48.53
2022-10-20T02:45:35.284Z,46.25
2022-10-20T02:48:16.417Z,41.38
2022-10-20T02:50:52.513Z,41.25
2022-10-20T02:53:29.403Z,45.92
2022-10-20T02:55:56.776Z,44.88
2022-10-20T02:58:24.318Z,43.20
2022-10-20T03:01:00.280Z,42.13
2022-10-20T03:03:27.652Z,48.20
2022-10-20T03:06:12.752Z,46.75
2022-10-20T03:08:40.313Z,51.22
2022-10-20T03:11:10.254Z,44.05
2022-10-20T03:13:46.010Z,48.75
2022-10-20T03:16:15.721Z,49.08
2022-10-20T03:18:43.120Z,47.33
2022-10-20T03:21:21.477Z,46.22
2022-10-20T03:23:56.880Z,51.15
2022-10-20T03:26:24.209Z,52.65
2022-10-20T03:28:57.795Z,49.47
2022-10-20T03:31:25.439Z,46.45
2022-10-20T03:33:53.248Z,53.83
2022-10-20T03:36:27.802Z,50.55
2022-10-20T03:38:55.203Z,44.75
2022-10-20T03:41:22.660Z,48.08
2022-10-20T03:43:58.871Z,51.83
2022-10-20T03:46:36.833Z,48.03
2022-10-20T03:49:20.321Z,48.63
2022-10-20T03:51:47.815Z,45.55
2022-10-20T03:54:15.157Z,40.72
2022-10-20T03:56:48.881Z,46.40
2022-10-20T03:59:16.236Z,44.45
2022-10-20T04:01:45.852Z,42.35
2022-10-20T04:04:24.963Z,44.15
2022-10-20T04:06:52.352Z,43.70
2022-10-20T04:09:22.121Z,45.63
2022-10-20T04:11:56.059Z,48.63
2022-10-20T04:14:23.404Z,39.28
2022-10-20T04:16:52.266Z,46.72
2022-10-20T04:19:26.068Z,43.40
2022-10-20T04:21:53.416Z,40.63
2022-10-20T04:24:22.443Z,42.17
2022-10-20T04:26:56.086Z,39.70
2022-10-20T04:29:24.191Z,40.78
2022-10-20T04:31:51.682Z,39.55
2022-10-20T04:34:25.122Z,40.17
2022-10-20T04:36:52.492Z,40.33
2022-10-20T04:39:20.145Z,42.40
2022-10-20T04:41:59.289Z,38.90
2022-10-20T04:44:26.784Z,40.90
2022-10-20T04:47:08.856Z,41.95
2022-10-20T04:49:45.265Z,37.80
2022-10-20T04:52:19.312Z,42.88
2022-10-20T04:54:48.766Z,42.35
2022-10-20T04:57:16.321Z,39.05
2022-10-20T04:59:50.218Z,42.10
2022-10-20T05:02:18.063Z,40.50
2022-10-20T05:04:46.444Z,43.35
2022-10-20T05:07:20.228Z,37.65
2022-10-20T05:09:48.958Z,41.40
2022-10-20T05:12:16.385Z,41.55
2022-10-20T05:14:53.901Z,48.45
2022-10-20T05:17:21.374Z,43.05
2022-10-20T05:19:48.768Z,45.30
2022-10-20T05:22:22.956Z,39.50
2022-10-20T05:24:50.417Z,41.08
2022-10-20T05:27:18.990Z,39.67
2022-10-20T05:29:54.634Z,41.25
2022-10-20T05:32:25.482Z,36.08
2022-10-20T05:34:56.029Z,39.70
2022-10-20T05:37:30.652Z,39.25
2022-10-20T05:39:59.979Z,42.47
2022-10-20T05:42:27.507Z,41.15
2022-10-20T05:45:02.774Z,34.90
2022-10-20T05:47:36.758Z,39.88
2022-10-20T05:50:23.681Z,41.30
2022-10-20T05:52:58.510Z,38.80
2022-10-20T05:55:35.468Z,37.97
2022-10-20T05:58:02.933Z,38.85
2022-10-20T06:00:31.551Z,40.63
2022-10-20T06:03:09.305Z,42.35
2022-10-20T06:05:36.783Z,41.13
2022-10-20T06:08:04.434Z,43.90
2022-10-20T06:10:40.309Z,39.35
2022-10-20T06:13:08.377Z,43.85
2022-10-20T06:15:35.846Z,42.42
2022-10-20T06:18:13.416Z,39.03
2022-10-20T06:20:41.490Z,39.03
2022-10-20T06:23:11.137Z,42.45
2022-10-20T06:25:45.114Z,42.33
2022-10-20T06:28:12.605Z,43.03
2022-10-20T06:30:40.619Z,42.30
2022-10-20T06:33:19.106Z,42.58
2022-10-20T06:35:46.562Z,46.95
2022-10-20T06:38:37.164Z,37.15
2022-10-20T06:41:16.831Z,43.10
2022-10-20T06:43:52.072Z,41.38
2022-10-20T06:46:19.720Z,36.45
2022-10-20T06:49:02.088Z,39.38
2022-10-20T06:51:29.642Z,43.40
2022-10-20T06:54:00.194Z,41.10
2022-10-20T06:56:38.358Z,40.20
2022-10-20T06:59:06.050Z,46.03
2022-10-20T07:01:37.630Z,33.15
2022-10-20T07:04:23.114Z,31.88
2022-10-20T07:06:53.496Z,31.92
2022-10-20T07:09:21.244Z,33.35
2022-10-20T07:12:02.178Z,29.98
2022-10-20T07:14:32.417Z,27.83
2022-10-20T07:17:00.096Z,29.20
2022-10-20T07:19:34.506Z,25.02
2022-10-20T07:22:03.286Z,25.88
2022-10-20T07:24:30.913Z,24.33
2022-10-20T07:27:08.402Z,25.52
2022-10-20T07:29:37.341Z,29.75
2022-10-20T07:32:14.609Z,29.25
2022-10-20T07:34:42.137Z,21.25
2022-10-20T07:37:09.669Z,26.77
2022-10-20T07:39:43.549Z,21.50
2022-10-20T07:42:11.131Z,21.58
2022-10-20T07:44:38.812Z,23.20
2022-10-20T07:47:13.158Z,16.10
2022-10-20T07:49:47.283Z,25.45
2022-10-20T07:52:23.173Z,17.95
2022-10-20T07:54:52.813Z,19.65
2022-10-20T07:57:30.311Z,18.48
2022-10-20T07:59:59.591Z,17.23
2022-10-20T08:02:27.024Z,18.92
2022-10-20T08:05:01.153Z,13.95
2022-10-20T08:07:28.610Z,16.15
2022-10-20T08:09:56.219Z,12.80
2022-10-20T08:12:31.232Z,19.73
2022-10-20T08:15:01.844Z,13.35
2022-10-20T08:17:29.394Z,16.77
2022-10-20T08:20:20.360Z,16.88
2022-10-20T08:22:50.136Z,15.80
2022-10-20T08:25:24.212Z,12.48
2022-10-20T08:27:51.785Z,13.45
2022-10-20T08:30:23.944Z,16.88
2022-10-20T08:33:00.764Z,15.27
2022-10-20T08:35:28.612Z,14.20
2022-10-20T08:37:58.642Z,16.05
2022-10-20T08:40:37.611Z,13.80
2022-10-20T08:43:05.155Z,14.38
2022-10-20T08:45:38.228Z,14.85
2022-10-20T08:48:14.644Z,16.40
2022-10-20T08:50:49.057Z,16.00
2022-10-20T08:53:23.520Z,13.50
2022-10-20T08:55:51.290Z,8.95
2022-10-20T08:58:30.712Z,12.57
2022-10-20T09:00:59.801Z,12.38
2022-10-20T09:03:39.630Z,12.70
2022-10-20T09:06:15.909Z,11.70
2022-10-20T09:08:50.608Z,11.95
2022-10-20T09:11:34.759Z,9.30
2022-10-20T09:14:10.042Z,6.88
2022-10-20T09:16:55.330Z,8.80
2022-10-20T09:19:33.572Z,6.93
2022-10-20T09:22:07.020Z,7.95
2022-10-20T09:24:42.756Z,7.78
2022-10-20T09:27:35.873Z,5.65
2022-10-20T09:30:36.602Z,4.90
2022-10-20T09:33:29.362Z,7.47
2022-10-20T09:36:09.593Z,8.65
2022-10-20T09:38:42.303Z,9.68
2022-10-20T09:41:28.066Z,5.80
2022-10-20T09:44:13.798Z,10.52
2022-10-20T09:46:55.934Z,5.40
2022-10-20T09:49:43.951Z,7.43
2022-10-20T09:52:26.876Z,8.38
2022-10-20T09:55:03.347Z,6.22
2022-10-20T09:57:38.801Z,4.38
2022-10-20T10:00:25.248Z,4.07
2022-10-20T10:03:27.933Z,8.35
2022-10-20T10:05:59.745Z,6.15
2022-10-20T10:08:47.932Z,7.07
2022-10-20T10:11:18.911Z,7.68
2022-10-20T10:14:04.720Z,7.18
2022-10-20T10:16:45.896Z,5.88
2022-10-20T10:19:26.698Z,6.25
2022-10-20T10:21:55.781Z,3.40
2022-10-20T10:24:47.726Z,13.55
2022-10-20T10:27:42.322Z,6.93
2022-10-20T10:30:56.616Z,9.18
2022-10-20T10:33:29.650Z,7.18
2022-10-20T10:36:09.144Z,6.25
2022-10-20T10:38:41.627Z,9.88
2022-10-20T10:41:34.489Z,5.40
2022-10-20T10:44:19.534Z,5.55
2022-10-20T10:47:23.725Z,7.63
2022-10-20T10:50:39.431Z,5.80
2022-10-20T10:53:25.658Z,7.47
2022-10-20T10:56:15.107Z,7.72
2022-10-20T10:59:23.227Z,14.93
2022-10-20T11:02:02.573Z,9.05
2022-10-20T11:04:47.277Z,10.88
2022-10-20T11:07:36.580Z,7.38
2022-10-20T11:10:23.253Z,8.05
2022-10-20T11:12:56.929Z,9.52
2022-10-20T11:16:05.334Z,13.10
2022-10-20T11:19:23.423Z,12.07
2022-10-20T11:22:07.638Z,14.10
2022-10-20T11:24:42.694Z,10.18
2022-10-20T11:27:19.239Z,9.05
2022-10-20T11:29:51.385Z,11.13
2022-10-20T11:32:46.403Z,11.70
2022-10-20T11:35:31.930Z,11.32
2022-10-20T11:38:37.808Z,12.80
2022-10-20T11:41:10.872Z,11.05
2022-10-20T11:44:07.854Z,12.68
2022-10-20T11:47:10.108Z,12.57
2022-10-20T11:49:51.000Z,16.23
2022-10-20T11:52:43.636Z,7.93
2022-10-20T11:55:45.042Z,12.68
2022-10-20T11:58:31.335Z,10.98
2022-10-20T12:01:41.082Z,12.93
2022-10-20T12:04:08.623Z,11.43
2022-10-20T12:06:58.038Z,13.48
2022-10-20T12:09:38.429Z,23.35
2022-10-20T12:12:16.836Z,13.40
2022-10-20T12:14:56.784Z,13.18
2022-10-20T12:17:33.820Z,11.13
2022-10-20T12:20:47.761Z,10.75
2022-10-20T12:23:51.079Z,9.63
2022-10-20T12:26:33.062Z,10.13
2022-10-20T12:29:10.341Z,9.23
2022-10-20T12:32:15.161Z,11.50
2022-10-20T12:34:49.046Z,13.63
2022-10-20T12:37:43.440Z,9.02
2022-10-20T12:41:04.084Z,14.52
2022-10-20T12:43:53.164Z,12.48
2022-10-20T12:46:35.182Z,9.00
2022-10-20T12:49:14.089Z,15.10
2022-10-20T12:52:03.084Z,8.32
2022-10-20T12:54:43.736Z,11.13
2022-10-20T12:57:51.103Z,10.60
2022-10-20T13:00:26.590Z,11.85
2022-10-20T13:03:05.170Z,14.40
2022-10-20T13:05:49.096Z,11.20
2022-10-20T13:08:27.066Z,10.52
2022-10-20T13:11:21.289Z,11.27
2022-10-20T13:14:05.678Z,10.73
2022-10-20T13:16:34.165Z,6.80
2022-10-20T13:19:12.622Z,8.13
2022-10-20T13:21:40.384Z,11.02
2022-10-20T13:24:42.708Z,8.60
2022-10-20T13:27:15.976Z,8.57
2022-10-20T13:29:53.639Z,12.13
2022-10-20T13:32:47.779Z,7.82
2022-10-20T13:36:08.729Z,10.75
2022-10-20T13:38:47.813Z,10.57
2022-10-20T13:41:38.708Z,12.25
2022-10-20T13:44:36.940Z,11.38
2022-10-20T13:47:37.015Z,10.70
2022-10-20T13:50:33.812Z,10.55
2022-10-20T13:53:18.566Z,14.43
2022-10-20T13:56:07.131Z,10.13
2022-10-20T13:58:41.561Z,11.77
2022-10-20T14:01:23.322Z,14.98
2022-10-20T14:03:59.986Z,14.35
2022-10-20T14:06:42.520Z,8.80
2022-10-20T14:09:22.983Z,10.60
2022-10-20T14:12:15.600Z,10.25
2022-10-20T14:14:57.008Z,15.55
2022-10-20T14:17:27.159Z,12.38
2022-10-20T14:20:24.425Z,10.98
2022-10-20T14:22:54.155Z,11.88
2022-10-20T14:25:23.331Z,12.80
2022-10-20T14:28:01.057Z,16.35
2022-10-20T14:30:31.767Z,12.13
2022-10-20T14:32:59.479Z,10.70
2022-10-20T14:35:45.087Z,15.50
2022-10-20T14:38:24.061Z,16.58
2022-10-20T14:41:04.061Z,11.32
2022-10-20T14:43:42.218Z,14.68
2022-10-20T14:46:29.956Z,10.45
2022-10-20T14:49:18.278Z,13.20
2022-10-20T14:52:06.204Z,13.07
2022-10-20T14:54:39.224Z,11.65
2022-10-20T14:57:19.260Z,11.40
2022-10-20T15:00:03.934Z,10.38
2022-10-20T15:02:41.741Z,10.70
2022-10-20T15:05:30.473Z,10.52
2022-10-20T15:08:12.772Z,11.65
2022-10-20T15:10:40.317Z,17.38
2022-10-20T15:13:33.775Z,16.23
2022-10-20T15:16:06.055Z,13.18
2022-10-20T15:18:41.910Z,9.75
2022-10-20T15:21:11.957Z,13.70
2022-10-20T15:23:39.649Z,12.25
2022-10-20T15:26:22.872Z,14.02
2022-10-20T15:28:51.198Z,11.80
2022-10-20T15:31:31.215Z,15.63
2022-10-20T15:33:59.164Z,18.23
2022-10-20T15:36:43.366Z,14.52
2022-10-20T15:39:12.339Z,16.77
2022-10-20T15:41:40.602Z,20.60
2022-10-20T15:44:24.443Z,15.57
2022-10-20T15:46:57.701Z,13.45
2022-10-20T15:49:39.457Z,17.42
2022-10-20T15:52:09.422Z,19.85
2022-10-20T15:54:37.076Z,13.60
2022-10-20T15:57:23.651Z,11.38
2022-10-20T15:59:51.617Z,14.00
2022-10-20T16:02:19.264Z,20.02
2022-10-20T16:04:53.666Z,15.25
2022-10-20T16:07:21.197Z,12.38
2022-10-20T16:09:51.664Z,14.82
2022-10-20T16:12:26.596Z,15.70
2022-10-20T16:14:54.701Z,16.58
2022-10-20T16:17:22.540Z,12.40
2022-10-20T16:19:56.567Z,12.02
2022-10-20T16:22:24.543Z,11.45
2022-10-20T16:24:54.722Z,9.35
2022-10-20T16:27:29.601Z,11.07
2022-10-20T16:30:00.608Z,11.07
2022-10-20T16:32:32.909Z,13.60
2022-10-20T16:35:19.165Z,13.35
2022-10-20T16:37:46.759Z,13.45
2022-10-20T16:40:16.572Z,14.23
2022-10-20T16:42:50.537Z,13.38
2022-10-20T16:45:20.409Z,18.05
2022-10-20T16:48:01.819Z,12.48
2022-10-20T16:50:40.022Z,19.15
2022-10-20T16:53:15.362Z,19.15
2022-10-20T16:55:55.397Z,13.45
2022-10-20T16:58:32.454Z,15.80
2022-10-20T17:01:09.804Z,12.52
2022-10-20T17:03:47.560Z,12.90
2022-10-20T17:06:17.224Z,12.43
2022-10-20T17:08:45.088Z,62.80
2022-10-20T17:11:24.501Z,131.98
2022-10-20T17:13:52.276Z,19.20
2022-10-20T17:16:32.672Z,19.05
2022-10-20T17:19:02.486Z,14.30
2022-10-20T17:21:31.274Z,12.05
2022-10-20T17:24:08.557Z,16.23
2022-10-20T17:26:36.230Z,13.43
2022-10-20T17:29:17.098Z,16.75
2022-10-20T17:31:44.571Z,13.05
2022-10-20T17:34:12.126Z,15.52
2022-10-20T17:36:47.157Z,18.83
2022-10-20T17:39:17.273Z,17.02
2022-10-20T17:41:54.231Z,15.65
2022-10-20T17:44:24.276Z,13.57
2022-10-20T17:46:56.265Z,17.27
2022-10-20T17:49:30.892Z,17.70
2022-10-20T17:52:05.506Z,12.20
2022-10-20T17:54:33.272Z,14.35
2022-10-20T17:57:10.773Z,12.13
2022-10-20T17:59:47.491Z,10.57
2022-10-20T18:02:30.440Z,14.88
2022-10-20T18:04:58.246Z,15.70
2022-10-20T18:07:28.645Z,11.40
2022-10-20T18:10:02.576Z,8.93
2022-10-20T18:12:30.600Z,19.20
2022-10-20T18:15:01.137Z,15.77
2022-10-20T18:17:35.642Z,12.93
2022-10-20T18:20:04.676Z,14.30
2022-10-20T18:22:34.697Z,19.65
2022-10-20T18:25:09.519Z,21.10
2022-10-20T18:27:37.414Z,16.60
2022-10-20T18:30:08.635Z,16.80
2022-10-20T18:32:44.710Z,26.55
2022-10-20T18:35:12.380Z,20.20
2022-10-20T18:37:40.305Z,23.42
2022-10-20T18:40:15.923Z,21.70
2022-10-20T18:42:46.072Z,22.83
2022-10-20T18:45:28.348Z,24.77
2022-10-20T18:48:16.668Z,19.75
2022-10-20T18:51:04.389Z,24.40
2022-10-20T18:53:33.582Z,21.50
2022-10-20T18:56:15.477Z,22.08
2022-10-20T18:58:48.702Z,21.05
2022-10-20T19:01:26.289Z,24.15
2022-10-20T19:03:56.670Z,20.92
2022-10-20T19:06:36.571Z,20.80
2022-10-20T19:09:14.949Z,18.60
2022-10-20T19:14:17.830Z,22.40
2022-10-20T19:16:49.691Z,26.10
2022-10-20T19:19:26.383Z,23.73
2022-10-20T19:21:53.994Z,26.20
2022-10-20T19:24:23.790Z,22.83
2022-10-20T19:27:25.659Z,28.85
2022-10-20T19:29:48.915Z,27.30
2022-10-20T19:32:23.364Z,25.25
2022-10-20T19:34:51.623Z,23.60
2022-10-20T19:37:19.044Z,23.10
2022-10-20T19:39:53.411Z,30.27
2022-10-20T19:42:25.447Z,35.50
2022-10-20T19:44:55.845Z,27.77
2022-10-20T19:47:30.283Z,27.55
2022-10-20T19:50:04.713Z,25.90
2022-10-20T19:52:41.675Z,25.42
2022-10-20T19:55:09.365Z,28.67
2022-10-20T19:57:41.586Z,35.75
2022-10-20T20:00:16.229Z,26.20
2022-10-20T20:02:43.768Z,27.00
2022-10-20T20:05:11.459Z,27.92
2022-10-20T20:07:46.588Z,25.42
2022-10-20T20:10:20.823Z,28.30
2022-10-20T20:12:48.377Z,26.08
2022-10-20T20:15:23.000Z,29.17
2022-10-20T20:17:54.241Z,26.67
2022-10-20T20:20:22.244Z,27.90
2022-10-20T20:22:56.851Z,27.70
2022-10-20T20:25:26.841Z,30.67
2022-10-20T20:27:55.163Z,33.55
2022-10-20T20:30:29.776Z,30.98
2022-10-20T20:33:00.240Z,32.15
2022-10-20T20:35:30.317Z,27.88
2022-10-20T20:38:04.153Z,28.55
2022-10-20T20:40:34.334Z,30.42
2022-10-20T20:43:01.822Z,29.08
2022-10-20T20:45:35.985Z,30.33
2022-10-20T20:48:10.237Z,26.65
2022-10-20T20:51:01.763Z,34.28
2022-10-20T20:53:30.705Z,33.25
2022-10-20T20:56:13.783Z,33.72
2022-10-20T20:58:42.446Z,31.13
2022-10-20T21:01:33.753Z,32.88
2022-10-20T21:04:04.290Z,36.90
2022-10-20T21:06:49.325Z,26.40
2022-10-20T21:09:23.788Z,37.38
2022-10-20T21:11:51.168Z,37.45
2022-10-20T21:14:18.901Z,30.58
2022-10-20T21:16:53.771Z,35.80
2022-10-20T21:19:22.028Z,30.90
2022-10-20T21:21:50.889Z,34.25
2022-10-20T21:24:28.377Z,39.53
2022-10-20T21:26:55.912Z,38.90
2022-10-20T21:29:23.501Z,47.30
2022-10-20T21:32:02.160Z,42.83
2022-10-20T21:34:29.731Z,42.17
2022-10-20T21:36:57.160Z,44.03
2022-10-20T21:41:58.472Z,47.00
2022-10-20T21:44:25.872Z,45.67
2022-10-20T21:47:00.156Z,44.00
2022-10-20T21:49:34.426Z,40.58
2022-10-20T21:52:15.180Z,40.65
2022-10-20T21:54:44.983Z,36.45
2022-10-20T21:57:12.516Z,41.95
2022-10-20T21:59:47.141Z,37.40
2022-10-20T22:02:19.194Z,38.80
2022-10-20T22:04:46.651Z,38.58
2022-10-20T22:07:20.164Z,35.40
2022-10-20T22:09:47.690Z,37.58
2022-10-20T22:12:15.087Z,37.08
2022-10-20T22:14:49.192Z,39.58
2022-10-20T22:17:16.747Z,37.67
2022-10-20T22:19:44.151Z,36.65
2022-10-20T22:22:18.181Z,39.80
2022-10-20T22:24:48.048Z,43.10
2022-10-20T22:27:25.285Z,41.78
2022-10-20T22:30:09.085Z,39.47
2022-10-20T22:32:36.778Z,40.85
2022-10-20T22:35:04.667Z,34.72
2022-10-20T22:37:38.077Z,41.47
2022-10-20T22:40:09.070Z,38.50
2022-10-20T22:42:36.731Z,38.30
2022-10-20T22:45:11.067Z,39.03
2022-10-20T22:47:38.422Z,36.33
2022-10-20T22:50:20.091Z,35.28
2022-10-20T22:52:54.159Z,39.05
2022-10-20T22:55:28.057Z,46.53
2022-10-20T23:00:26.247Z,40.38
2022-10-20T23:02:59.921Z,38.00
2022-10-20T23:05:27.359Z,34.00
2022-10-20T23:07:54.741Z,43.20
2022-10-20T23:10:28.895Z,36.63
2022-10-20T23:12:58.770Z,37.83
2022-10-20T23:15:27.394Z,40.47
2022-10-20T23:18:00.769Z,39.38
2022-10-20T23:20:31.175Z,45.45
2022-10-20T23:22:58.571Z,34.13
2022-10-20T23:25:32.835Z,41.65
2022-10-20T23:28:02.801Z,40.28
2022-10-20T23:30:30.186Z,40.63
2022-10-20T23:33:03.820Z,38.97
2022-10-20T23:35:31.659Z,37.17
2022-10-20T23:38:01.544Z,41.20
2022-10-20T23:40:35.375Z,42.30
2022-10-20T23:43:02.832Z,47.65
2022-10-20T23:45:32.894Z,46.65
2022-10-20T23:48:09.363Z,38.88
2022-10-20T23:50:45.417Z,42.55
2022-10-20T23:53:19.302Z,41.13
2022-10-20T23:55:46.790Z,34.83
2022-10-20T23:58:27.717Z,35.63
